Norah Head Lighthouse, New South Wales

5:49 AM EST on August 24, 2014 (GMT +1000)
Kanwal | Change Station
CLOSE
Current Station
Personal Weather Station
Location: Kanwal, NEW SOUTH WALES
Elevation: 112 ft
Nearby Weather Stations

Elev 112 ft 33.26 °S, 151.49 °E | Updated 3 seconds ago

Overcast
Overcast
51.4 °F
Feels Like 51.4 °F
N
1.2
Wind Variable Wind from SW
Gusts 3.1 mph

Today
High -- | Low -- °F
--% Chance of Precip.
Yesterday
High -- | Low -- °F
Precip. -- in
6:22 AM 5:30 PM
Waning Crescent, 3% visible
Pressure 30.39 in
Visibility 0.1 miles
Clouds Overcast 100 ft
Dew Point 51 °F
Humidity 99%
Rainfall 0.00 in
Snow Depth Not available.
UV 0.0 out of 12
Pollen Not available.
Air Quality Not available.
Flu Activity Not available.
SPECI YSRI 231933Z AUTO 00000KT 0150 // OVC001 10/10 Q1029 RMK AUTO OBSCURATION CODES REMOVED

More Conditions Fewer Conditions

Pressure 30.39 in
Visibility 0.1 miles
Clouds Overcast 100 ft
Dew Point 51 °F
Humidity 99%
Rainfall 0.00 in
Snow Depth Not available.
UV 0.0 out of 12
Pollen Not available.
Air Quality Not available.
Flu Activity Not available.
SPECI YSRI 231933Z AUTO 00000KT 0150 // OVC001 10/10 Q1029 RMK AUTO OBSCURATION CODES REMOVED

More Conditions Fewer Conditions

10-Day Weather Forecast

Almanac

Astronomy

Aug. 24, 2014 Rise Set
Actual Time 6:22 AM EST 5:30 PM EST
Civil Twilight 5:57 AM EST 5:55 PM EST
Nautical Twilight 5:28 AM EST 6:24 PM EST
Astronomical Twilight 4:59 AM EST 6:53 PM EST
Moon 5:08 AM EST (8/24) 4:23 PM EST (8/24)
Length of Visible Light 11h 58m
Length of Day
11h 08m
Tomorrow will be 1m 52s longer.
Waning Crescent, 3% of the Moon is Illuminated
Aug 23
Waning Crescent
Aug 25
New
Sep 2
First Quarter
Sep 8
Full
Sep 15
Last Quarter

Yesterday's Extremes

Country Highs Country Lows

Community

WunderPhotos

Upload Photos

1,746,583 photos uploaded!

WunderBlogs® & News

Nearby

Snow Depth

Not available.

Earthquake Activity

City Distance Mag. Time & Date
No recent earthquake activity has been reported nearby.
Minimum magnitude displayed is 2.5.

Coastal Water Temperatures

Place Temperature
No Stations Reporting

Nearby Weather Stations